sensor_id;sensor_type;location;lat;lon;timestamp;temperature;humidity
32640;DHT22;19049;52.524;11.468;2022-10-31T00:01:57;10.70;90.70
32640;DHT22;19049;52.524;11.468;2022-10-31T00:04:23;10.60;90.70
32640;DHT22;19049;52.524;11.468;2022-10-31T00:06:49;10.60;90.80
32640;DHT22;19049;52.524;11.468;2022-10-31T00:09:14;10.60;90.90
32640;DHT22;19049;52.524;11.468;2022-10-31T00:11:40;10.50;90.90
32640;DHT22;19049;52.524;11.468;2022-10-31T00:14:06;10.50;90.90
32640;DHT22;19049;52.524;11.468;2022-10-31T00:16:31;10.50;91.00
32640;DHT22;19049;52.524;11.468;2022-10-31T00:19:03;10.50;91.00
32640;DHT22;19049;52.524;11.468;2022-10-31T00:21:30;10.50;91.00
32640;DHT22;19049;52.524;11.468;2022-10-31T00:23:57;10.50;91.00
32640;DHT22;19049;52.524;11.468;2022-10-31T00:26:24;10.40;91.00
32640;DHT22;19049;52.524;11.468;2022-10-31T00:28:50;10.40;91.10
32640;DHT22;19049;52.524;11.468;2022-10-31T00:31:16;10.40;91.10
32640;DHT22;19049;52.524;11.468;2022-10-31T00:33:42;10.40;91.20
32640;DHT22;19049;52.524;11.468;2022-10-31T00:36:11;10.40;91.20
32640;DHT22;19049;52.524;11.468;2022-10-31T00:38:37;10.40;91.20
32640;DHT22;19049;52.524;11.468;2022-10-31T00:41:03;10.40;91.10
32640;DHT22;19049;52.524;11.468;2022-10-31T00:43:29;10.40;91.10
32640;DHT22;19049;52.524;11.468;2022-10-31T00:45:54;10.40;91.30
32640;DHT22;19049;52.524;11.468;2022-10-31T00:48:20;10.40;91.50
32640;DHT22;19049;52.524;11.468;2022-10-31T00:50:46;10.40;91.70
32640;DHT22;19049;52.524;11.468;2022-10-31T00:53:11;10.50;92.00
32640;DHT22;19049;52.524;11.468;2022-10-31T00:55:37;10.50;92.20
32640;DHT22;19049;52.524;11.468;2022-10-31T00:58:03;10.60;92.30
32640;DHT22;19049;52.524;11.468;2022-10-31T01:00:28;10.70;92.60
32640;DHT22;19049;52.524;11.468;2022-10-31T01:02:54;10.80;92.60
32640;DHT22;19049;52.524;11.468;2022-10-31T01:05:20;10.90;92.90
32640;DHT22;19049;52.524;11.468;2022-10-31T01:07:46;11.00;93.40
32640;DHT22;19049;52.524;11.468;2022-10-31T01:10:14;11.20;94.10
32640;DHT22;19049;52.524;11.468;2022-10-31T01:12:45;11.40;94.10
32640;DHT22;19049;52.524;11.468;2022-10-31T01:15:13;11.60;95.10
32640;DHT22;19049;52.524;11.468;2022-10-31T01:17:39;11.80;95.20
32640;DHT22;19049;52.524;11.468;2022-10-31T01:20:07;12.00;95.70
32640;DHT22;19049;52.524;11.468;2022-10-31T01:22:33;12.20;96.00
32640;DHT22;19049;52.524;11.468;2022-10-31T01:24:59;12.50;96.20
32640;DHT22;19049;52.524;11.468;2022-10-31T01:27:25;12.60;96.40
32640;DHT22;19049;52.524;11.468;2022-10-31T01:29:53;12.80;96.60
32640;DHT22;19049;52.524;11.468;2022-10-31T01:32:19;13.00;96.40
32640;DHT22;19049;52.524;11.468;2022-10-31T01:34:45;13.10;95.90
32640;DHT22;19049;52.524;11.468;2022-10-31T01:37:10;13.30;95.80
32640;DHT22;19049;52.524;11.468;2022-10-31T01:39:36;13.40;95.30
32640;DHT22;19049;52.524;11.468;2022-10-31T01:42:02;13.50;94.80
32640;DHT22;19049;52.524;11.468;2022-10-31T01:46:57;13.60;94.30
32640;DHT22;19049;52.524;11.468;2022-10-31T01:49:35;13.60;94.10
32640;DHT22;19049;52.524;11.468;2022-10-31T01:52:42;13.60;94.30
32640;DHT22;19049;52.524;11.468;2022-10-31T01:55:12;13.70;95.00
32640;DHT22;19049;52.524;11.468;2022-10-31T01:57:41;13.80;94.10
32640;DHT22;19049;52.524;11.468;2022-10-31T02:00:09;13.80;94.20
32640;DHT22;19049;52.524;11.468;2022-10-31T02:02:36;13.90;94.30
32640;DHT22;19049;52.524;11.468;2022-10-31T02:05:05;13.90;94.40
32640;DHT22;19049;52.524;11.468;2022-10-31T02:07:59;14.00;94.10
32640;DHT22;19049;52.524;11.468;2022-10-31T02:10:27;14.00;94.40
32640;DHT22;19049;52.524;11.468;2022-10-31T02:12:56;14.10;94.00
32640;DHT22;19049;52.524;11.468;2022-10-31T02:15:23;14.10;93.80
32640;DHT22;19049;52.524;11.468;2022-10-31T02:17:49;14.20;93.80
32640;DHT22;19049;52.524;11.468;2022-10-31T02:20:18;14.20;93.90
32640;DHT22;19049;52.524;11.468;2022-10-31T02:22:57;14.30;93.80
32640;DHT22;19049;52.524;11.468;2022-10-31T02:25:58;14.30;93.80
32640;DHT22;19049;52.524;11.468;2022-10-31T02:34:14;14.40;93.80
32640;DHT22;19049;52.524;11.468;2022-10-31T02:39:48;14.50;93.70
32640;DHT22;19049;52.524;11.468;2022-10-31T02:42:22;14.60;93.50
32640;DHT22;19049;52.524;11.468;2022-10-31T02:47:37;14.70;93.60
32640;DHT22;19049;52.524;11.468;2022-10-31T02:52:33;14.70;93.30
32640;DHT22;19049;52.524;11.468;2022-10-31T02:57:51;14.70;93.30
32640;DHT22;19049;52.524;11.468;2022-10-31T03:00:20;14.80;93.10
32640;DHT22;19049;52.524;11.468;2022-10-31T03:03:23;14.80;93.20
32640;DHT22;19049;52.524;11.468;2022-10-31T03:08:42;14.80;93.20
32640;DHT22;19049;52.524;11.468;2022-10-31T03:11:11;14.80;93.00
32640;DHT22;19049;52.524;11.468;2022-10-31T03:13:47;14.80;93.00
32640;DHT22;19049;52.524;11.468;2022-10-31T03:16:32;14.80;93.00
32640;DHT22;19049;52.524;11.468;2022-10-31T03:19:09;14.80;92.90
32640;DHT22;19049;52.524;11.468;2022-10-31T03:21:40;14.90;92.80
32640;DHT22;19049;52.524;11.468;2022-10-31T03:24:09;14.80;92.80
32640;DHT22;19049;52.524;11.468;2022-10-31T03:26:41;14.80;92.70
32640;DHT22;19049;52.524;11.468;2022-10-31T03:29:10;14.80;92.80
32640;DHT22;19049;52.524;11.468;2022-10-31T03:34:15;14.80;92.90
32640;DHT22;19049;52.524;11.468;2022-10-31T03:36:45;14.70;92.80
32640;DHT22;19049;52.524;11.468;2022-10-31T03:39:14;14.70;93.10
32640;DHT22;19049;52.524;11.468;2022-10-31T03:41:45;14.70;92.90
32640;DHT22;19049;52.524;11.468;2022-10-31T03:44:15;14.70;93.00
32640;DHT22;19049;52.524;11.468;2022-10-31T03:46:43;14.70;93.10
32640;DHT22;19049;52.524;11.468;2022-10-31T03:49:09;14.60;93.00
32640;DHT22;19049;52.524;11.468;2022-10-31T03:51:54;14.60;93.20
32640;DHT22;19049;52.524;11.468;2022-10-31T03:56:58;14.60;93.00
32640;DHT22;19049;52.524;11.468;2022-10-31T03:59:42;14.60;93.10
32640;DHT22;19049;52.524;11.468;2022-10-31T04:02:18;14.50;93.20
32640;DHT22;19049;52.524;11.468;2022-10-31T04:04:45;14.50;93.10
32640;DHT22;19049;52.524;11.468;2022-10-31T04:07:12;14.50;93.00
32640;DHT22;19049;52.524;11.468;2022-10-31T04:09:43;14.50;93.00
32640;DHT22;19049;52.524;11.468;2022-10-31T04:12:12;14.40;92.90
32640;DHT22;19049;52.524;11.468;2022-10-31T04:14:42;14.40;92.90
32640;DHT22;19049;52.524;11.468;2022-10-31T04:17:12;14.40;93.00
32640;DHT22;19049;52.524;11.468;2022-10-31T04:19:39;14.30;93.00
32640;DHT22;19049;52.524;11.468;2022-10-31T04:22:05;14.30;92.80
32640;DHT22;19049;52.524;11.468;2022-10-31T04:24:30;14.20;92.70
32640;DHT22;19049;52.524;11.468;2022-10-31T04:26:56;14.20;92.70
32640;DHT22;19049;52.524;11.468;2022-10-31T04:29:22;14.20;92.60
32640;DHT22;19049;52.524;11.468;2022-10-31T04:31:47;14.10;92.50
32640;DHT22;19049;52.524;11.468;2022-10-31T04:34:13;14.00;92.50
32640;DHT22;19049;52.524;11.468;2022-10-31T04:36:38;14.00;92.50
32640;DHT22;19049;52.524;11.468;2022-10-31T04:39:04;13.90;92.40
32640;DHT22;19049;52.524;11.468;2022-10-31T04:41:32;13.90;92.40
32640;DHT22;19049;52.524;11.468;2022-10-31T04:43:58;13.80;92.20
32640;DHT22;19049;52.524;11.468;2022-10-31T04:46:23;13.70;92.10
32640;DHT22;19049;52.524;11.468;2022-10-31T04:48:49;13.60;92.10
32640;DHT22;19049;52.524;11.468;2022-10-31T04:51:15;13.50;92.10
32640;DHT22;19049;52.524;11.468;2022-10-31T04:53:40;13.30;92.10
32640;DHT22;19049;52.524;11.468;2022-10-31T04:56:06;13.30;92.10
32640;DHT22;19049;52.524;11.468;2022-10-31T04:58:32;13.20;92.10
32640;DHT22;19049;52.524;11.468;2022-10-31T05:00:57;13.00;92.10
32640;DHT22;19049;52.524;11.468;2022-10-31T05:03:23;12.90;92.30
32640;DHT22;19049;52.524;11.468;2022-10-31T05:05:49;12.90;92.60
32640;DHT22;19049;52.524;11.468;2022-10-31T05:08:15;12.80;92.90
32640;DHT22;19049;52.524;11.468;2022-10-31T05:10:41;12.80;93.30
32640;DHT22;19049;52.524;11.468;2022-10-31T05:13:07;12.80;93.60
32640;DHT22;19049;52.524;11.468;2022-10-31T05:15:33;12.80;94.30
32640;DHT22;19049;52.524;11.468;2022-10-31T05:17:59;12.80;94.60
32640;DHT22;19049;52.524;11.468;2022-10-31T05:20:27;12.80;94.50
32640;DHT22;19049;52.524;11.468;2022-10-31T05:22:54;12.90;94.60
32640;DHT22;19049;52.524;11.468;2022-10-31T05:25:25;13.00;94.50
32640;DHT22;19049;52.524;11.468;2022-10-31T05:27:52;13.00;95.00
32640;DHT22;19049;52.524;11.468;2022-10-31T05:30:23;13.00;95.10
32640;DHT22;19049;52.524;11.468;2022-10-31T05:32:50;13.10;95.20
32640;DHT22;19049;52.524;11.468;2022-10-31T05:35:36;13.20;95.20
32640;DHT22;19049;52.524;11.468;2022-10-31T05:38:01;13.20;95.30
32640;DHT22;19049;52.524;11.468;2022-10-31T05:40:28;13.20;95.20
32640;DHT22;19049;52.524;11.468;2022-10-31T05:42:55;13.30;95.20
32640;DHT22;19049;52.524;11.468;2022-10-31T05:45:21;13.30;95.30
32640;DHT22;19049;52.524;11.468;2022-10-31T05:47:58;13.40;95.40
32640;DHT22;19049;52.524;11.468;2022-10-31T05:50:26;13.50;95.50
32640;DHT22;19049;52.524;11.468;2022-10-31T05:53:04;13.50;95.40
32640;DHT22;19049;52.524;11.468;2022-10-31T05:55:31;13.60;95.50
32640;DHT22;19049;52.524;11.468;2022-10-31T05:57:57;13.70;95.50
32640;DHT22;19049;52.524;11.468;2022-10-31T06:00:23;13.70;95.50
32640;DHT22;19049;52.524;11.468;2022-10-31T06:02:49;13.80;95.70
32640;DHT22;19049;52.524;11.468;2022-10-31T06:05:18;13.90;95.50
32640;DHT22;19049;52.524;11.468;2022-10-31T06:07:43;13.90;95.50
32640;DHT22;19049;52.524;11.468;2022-10-31T06:10:10;14.00;95.60
32640;DHT22;19049;52.524;11.468;2022-10-31T06:12:36;14.00;95.90
32640;DHT22;19049;52.524;11.468;2022-10-31T06:15:04;14.10;95.70
32640;DHT22;19049;52.524;11.468;2022-10-31T06:17:31;14.10;95.70
32640;DHT22;19049;52.524;11.468;2022-10-31T06:19:57;14.10;95.40
32640;DHT22;19049;52.524;11.468;2022-10-31T06:22:22;14.20;95.50
32640;DHT22;19049;52.524;11.468;2022-10-31T06:24:48;14.20;95.60
32640;DHT22;19049;52.524;11.468;2022-10-31T06:27:14;14.20;95.70
32640;DHT22;19049;52.524;11.468;2022-10-31T06:29:39;14.30;95.50
32640;DHT22;19049;52.524;11.468;2022-10-31T06:32:05;14.30;95.50
32640;DHT22;19049;52.524;11.468;2022-10-31T06:34:31;14.40;95.50
32640;DHT22;19049;52.524;11.468;2022-10-31T06:36:56;14.50;95.40
32640;DHT22;19049;52.524;11.468;2022-10-31T06:39:22;14.50;95.50
32640;DHT22;19049;52.524;11.468;2022-10-31T06:41:48;14.60;95.40
32640;DHT22;19049;52.524;11.468;2022-10-31T06:44:14;14.60;95.40
32640;DHT22;19049;52.524;11.468;2022-10-31T06:46:39;14.60;95.40
32640;DHT22;19049;52.524;11.468;2022-10-31T06:49:05;14.70;95.30
32640;DHT22;19049;52.524;11.468;2022-10-31T06:51:31;14.70;95.30
32640;DHT22;19049;52.524;11.468;2022-10-31T06:53:56;14.70;95.20
32640;DHT22;19049;52.524;11.468;2022-10-31T06:56:22;14.80;95.10
32640;DHT22;19049;52.524;11.468;2022-10-31T06:58:47;14.80;95.30
32640;DHT22;19049;52.524;11.468;2022-10-31T07:01:13;14.90;95.30
32640;DHT22;19049;52.524;11.468;2022-10-31T07:03:39;14.90;95.20
32640;DHT22;19049;52.524;11.468;2022-10-31T07:06:05;15.00;95.40
32640;DHT22;19049;52.524;11.468;2022-10-31T07:08:30;15.10;99.80
32640;DHT22;19049;52.524;11.468;2022-10-31T07:10:57;15.20;95.90
32640;DHT22;19049;52.524;11.468;2022-10-31T07:13:23;15.20;95.80
32640;DHT22;19049;52.524;11.468;2022-10-31T07:16:00;15.10;95.20
32640;DHT22;19049;52.524;11.468;2022-10-31T07:18:26;15.30;95.70
32640;DHT22;19049;52.524;11.468;2022-10-31T07:20:52;15.30;95.90
32640;DHT22;19049;52.524;11.468;2022-10-31T07:23:18;15.30;95.60
32640;DHT22;19049;52.524;11.468;2022-10-31T07:25:44;15.40;98.40
32640;DHT22;19049;52.524;11.468;2022-10-31T07:28:10;15.30;95.00
32640;DHT22;19049;52.524;11.468;2022-10-31T07:30:37;15.30;95.10
32640;DHT22;19049;52.524;11.468;2022-10-31T07:33:03;15.30;95.10
32640;DHT22;19049;52.524;11.468;2022-10-31T07:35:30;15.40;95.20
32640;DHT22;19049;52.524;11.468;2022-10-31T07:37:56;15.50;96.90
32640;DHT22;19049;52.524;11.468;2022-10-31T07:40:24;15.60;96.10
32640;DHT22;19049;52.524;11.468;2022-10-31T07:42:52;15.50;95.10
32640;DHT22;19049;52.524;11.468;2022-10-31T07:45:20;15.50;95.10
32640;DHT22;19049;52.524;11.468;2022-10-31T07:47:48;15.50;95.10
32640;DHT22;19049;52.524;11.468;2022-10-31T07:50:19;15.60;95.20
32640;DHT22;19049;52.524;11.468;2022-10-31T07:52:45;15.70;95.10
32640;DHT22;19049;52.524;11.468;2022-10-31T07:55:11;15.70;95.00
32640;DHT22;19049;52.524;11.468;2022-10-31T07:57:37;15.80;95.10
32640;DHT22;19049;52.524;11.468;2022-10-31T08:00:07;15.80;95.10
32640;DHT22;19049;52.524;11.468;2022-10-31T08:02:33;15.90;95.20
32640;DHT22;19049;52.524;11.468;2022-10-31T08:04:59;16.00;95.10
32640;DHT22;19049;52.524;11.468;2022-10-31T08:07:27;16.00;95.00
32640;DHT22;19049;52.524;11.468;2022-10-31T08:09:53;16.10;95.10
32640;DHT22;19049;52.524;11.468;2022-10-31T08:12:19;16.10;95.00
32640;DHT22;19049;52.524;11.468;2022-10-31T08:14:45;16.20;94.90
32640;DHT22;19049;52.524;11.468;2022-10-31T08:17:11;16.20;94.80
32640;DHT22;19049;52.524;11.468;2022-10-31T08:19:37;16.30;94.70
32640;DHT22;19049;52.524;11.468;2022-10-31T08:22:02;16.30;94.60
32640;DHT22;19049;52.524;11.468;2022-10-31T08:24:28;16.40;94.40
32640;DHT22;19049;52.524;11.468;2022-10-31T08:26:54;16.40;94.70
32640;DHT22;19049;52.524;11.468;2022-10-31T08:29:23;16.50;94.70
32640;DHT22;19049;52.524;11.468;2022-10-31T08:31:49;16.60;94.90
32640;DHT22;19049;52.524;11.468;2022-10-31T08:34:14;16.80;95.20
32640;DHT22;19049;52.524;11.468;2022-10-31T08:36:40;16.90;95.20
32640;DHT22;19049;52.524;11.468;2022-10-31T08:39:07;17.10;95.10
32640;DHT22;19049;52.524;11.468;2022-10-31T08:41:33;17.30;95.00
32640;DHT22;19049;52.524;11.468;2022-10-31T08:43:59;17.50;94.70
32640;DHT22;19049;52.524;11.468;2022-10-31T08:46:24;17.70;94.50
32640;DHT22;19049;52.524;11.468;2022-10-31T08:48:50;17.90;94.20
32640;DHT22;19049;52.524;11.468;2022-10-31T08:51:16;18.10;94.10
32640;DHT22;19049;52.524;11.468;2022-10-31T08:53:41;18.20;93.80
32640;DHT22;19049;52.524;11.468;2022-10-31T08:56:07;18.30;93.50
32640;DHT22;19049;52.524;11.468;2022-10-31T08:58:32;18.40;93.20
32640;DHT22;19049;52.524;11.468;2022-10-31T09:01:00;18.50;93.00
32640;DHT22;19049;52.524;11.468;2022-10-31T09:03:30;18.40;92.70
32640;DHT22;19049;52.524;11.468;2022-10-31T09:05:59;18.40;92.50
32640;DHT22;19049;52.524;11.468;2022-10-31T09:08:26;18.40;92.50
32640;DHT22;19049;52.524;11.468;2022-10-31T09:10:52;18.40;92.50
32640;DHT22;19049;52.524;11.468;2022-10-31T09:13:21;18.40;92.30
32640;DHT22;19049;52.524;11.468;2022-10-31T09:15:49;18.40;92.20
32640;DHT22;19049;52.524;11.468;2022-10-31T09:18:17;18.40;92.20
32640;DHT22;19049;52.524;11.468;2022-10-31T09:20:44;18.40;92.20
32640;DHT22;19049;52.524;11.468;2022-10-31T09:23:18;18.40;92.10
32640;DHT22;19049;52.524;11.468;2022-10-31T09:25:45;18.30;92.10
32640;DHT22;19049;52.524;11.468;2022-10-31T09:28:12;18.30;92.20
32640;DHT22;19049;52.524;11.468;2022-10-31T09:30:39;18.40;92.50
32640;DHT22;19049;52.524;11.468;2022-10-31T09:33:07;18.40;92.50
32640;DHT22;19049;52.524;11.468;2022-10-31T09:35:34;18.50;92.60
32640;DHT22;19049;52.524;11.468;2022-10-31T09:38:01;18.60;92.40
32640;DHT22;19049;52.524;11.468;2022-10-31T09:40:36;18.80;92.20
32640;DHT22;19049;52.524;11.468;2022-10-31T09:43:16;18.90;92.20
32640;DHT22;19049;52.524;11.468;2022-10-31T09:46:04;18.90;91.50
32640;DHT22;19049;52.524;11.468;2022-10-31T09:51:33;19.20;91.80
32640;DHT22;19049;52.524;11.468;2022-10-31T09:54:16;19.30;91.70
32640;DHT22;19049;52.524;11.468;2022-10-31T09:56:44;19.60;96.00
32640;DHT22;19049;52.524;11.468;2022-10-31T09:59:37;19.50;90.70
32640;DHT22;19049;52.524;11.468;2022-10-31T10:02:10;19.60;90.10
32640;DHT22;19049;52.524;11.468;2022-10-31T10:04:40;19.50;90.60
32640;DHT22;19049;52.524;11.468;2022-10-31T10:07:13;19.50;90.10
32640;DHT22;19049;52.524;11.468;2022-10-31T10:09:40;19.50;90.30
32640;DHT22;19049;52.524;11.468;2022-10-31T10:12:53;19.40;90.00
32640;DHT22;19049;52.524;11.468;2022-10-31T10:15:42;19.50;90.20
32640;DHT22;19049;52.524;11.468;2022-10-31T10:18:23;19.50;90.40
32640;DHT22;19049;52.524;11.468;2022-10-31T10:23:56;19.80;90.90
32640;DHT22;19049;52.524;11.468;2022-10-31T10:26:30;19.80;90.10
32640;DHT22;19049;52.524;11.468;2022-10-31T10:29:01;19.90;90.20
32640;DHT22;19049;52.524;11.468;2022-10-31T10:31:32;20.00;89.50
32640;DHT22;19049;52.524;11.468;2022-10-31T10:34:20;20.10;89.00
32640;DHT22;19049;52.524;11.468;2022-10-31T10:36:58;20.20;88.90
32640;DHT22;19049;52.524;11.468;2022-10-31T10:39:30;20.30;89.40
32640;DHT22;19049;52.524;11.468;2022-10-31T10:41:59;20.50;89.40
32640;DHT22;19049;52.524;11.468;2022-10-31T10:44:46;20.60;89.00
32640;DHT22;19049;52.524;11.468;2022-10-31T10:47:41;20.90;88.90
32640;DHT22;19049;52.524;11.468;2022-10-31T10:50:25;21.00;88.00
32640;DHT22;19049;52.524;11.468;2022-10-31T10:56:12;21.30;86.90
32640;DHT22;19049;52.524;11.468;2022-10-31T10:58:40;21.40;83.60
32640;DHT22;19049;52.524;11.468;2022-10-31T11:01:12;21.50;86.10
32640;DHT22;19049;52.524;11.468;2022-10-31T11:03:39;21.60;86.30
32640;DHT22;19049;52.524;11.468;2022-10-31T11:06:20;21.70;85.80
32640;DHT22;19049;52.524;11.468;2022-10-31T11:08:50;21.80;84.80
32640;DHT22;19049;52.524;11.468;2022-10-31T11:11:29;21.90;84.90
32640;DHT22;19049;52.524;11.468;2022-10-31T11:14:05;22.00;84.20
32640;DHT22;19049;52.524;11.468;2022-10-31T11:16:35;22.10;84.00
32640;DHT22;19049;52.524;11.468;2022-10-31T11:19:19;22.20;84.00
32640;DHT22;19049;52.524;11.468;2022-10-31T11:21:45;22.30;82.90
32640;DHT22;19049;52.524;11.468;2022-10-31T11:24:13;22.40;83.00
32640;DHT22;19049;52.524;11.468;2022-10-31T11:26:41;22.50;83.20
32640;DHT22;19049;52.524;11.468;2022-10-31T11:29:21;22.60;82.70
32640;DHT22;19049;52.524;11.468;2022-10-31T11:31:48;22.70;80.20
32640;DHT22;19049;52.524;11.468;2022-10-31T11:34:32;22.80;81.70
32640;DHT22;19049;52.524;11.468;2022-10-31T11:37:22;22.90;81.10
32640;DHT22;19049;52.524;11.468;2022-10-31T11:39:54;23.00;77.50
32640;DHT22;19049;52.524;11.468;2022-10-31T11:42:23;23.10;80.30
32640;DHT22;19049;52.524;11.468;2022-10-31T11:44:50;23.20;80.40
32640;DHT22;19049;52.524;11.468;2022-10-31T11:47:17;23.30;80.20
32640;DHT22;19049;52.524;11.468;2022-10-31T11:49:46;23.50;79.40
32640;DHT22;19049;52.524;11.468;2022-10-31T11:52:26;23.60;79.20
32640;DHT22;19049;52.524;11.468;2022-10-31T11:55:00;23.60;78.20
32640;DHT22;19049;52.524;11.468;2022-10-31T11:57:46;23.50;77.60
32640;DHT22;19049;52.524;11.468;2022-10-31T12:05:39;23.50;77.00
32640;DHT22;19049;52.524;11.468;2022-10-31T12:08:09;23.50;77.40
32640;DHT22;19049;52.524;11.468;2022-10-31T12:13:39;23.50;75.60
32640;DHT22;19049;52.524;11.468;2022-10-31T12:19:22;23.50;77.80
32640;DHT22;19049;52.524;11.468;2022-10-31T12:30:21;23.20;78.10
32640;DHT22;19049;52.524;11.468;2022-10-31T12:35:55;23.00;78.30
32640;DHT22;19049;52.524;11.468;2022-10-31T12:44:06;23.00;79.30
32640;DHT22;19049;52.524;11.468;2022-10-31T12:49:42;23.30;78.30
32640;DHT22;19049;52.524;11.468;2022-10-31T12:55:15;23.50;78.00
32640;DHT22;19049;52.524;11.468;2022-10-31T12:57:54;23.60;77.90
32640;DHT22;19049;52.524;11.468;2022-10-31T13:00:24;23.60;77.90
32640;DHT22;19049;52.524;11.468;2022-10-31T13:02:54;23.60;77.40
32640;DHT22;19049;52.524;11.468;2022-10-31T13:05:33;23.70;77.30
32640;DHT22;19049;52.524;11.468;2022-10-31T13:08:09;23.60;76.60
32640;DHT22;19049;52.524;11.468;2022-10-31T13:10:52;23.70;76.60
32640;DHT22;19049;52.524;11.468;2022-10-31T13:13:27;23.70;76.10
32640;DHT22;19049;52.524;11.468;2022-10-31T13:16:04;23.70;76.00
32640;DHT22;19049;52.524;11.468;2022-10-31T13:18:46;23.70;75.50
32640;DHT22;19049;52.524;11.468;2022-10-31T13:21:22;23.70;75.60
32640;DHT22;19049;52.524;11.468;2022-10-31T13:23:50;23.70;75.30
32640;DHT22;19049;52.524;11.468;2022-10-31T13:26:31;23.60;75.70
32640;DHT22;19049;52.524;11.468;2022-10-31T13:31:46;23.70;75.90
32640;DHT22;19049;52.524;11.468;2022-10-31T13:34:24;23.70;75.40
32640;DHT22;19049;52.524;11.468;2022-10-31T13:37:32;23.60;75.00
32640;DHT22;19049;52.524;11.468;2022-10-31T13:45:28;23.30;74.50
32640;DHT22;19049;52.524;11.468;2022-10-31T13:47:56;23.10;74.60
32640;DHT22;19049;52.524;11.468;2022-10-31T13:50:32;22.90;74.80
32640;DHT22;19049;52.524;11.468;2022-10-31T13:53:21;22.60;75.10
32640;DHT22;19049;52.524;11.468;2022-10-31T13:56:04;22.30;75.60
32640;DHT22;19049;52.524;11.468;2022-10-31T13:58:35;22.00;76.20
32640;DHT22;19049;52.524;11.468;2022-10-31T14:01:15;21.80;76.80
32640;DHT22;19049;52.524;11.468;2022-10-31T14:03:44;21.60;77.20
32640;DHT22;19049;52.524;11.468;2022-10-31T14:06:11;21.40;77.60
32640;DHT22;19049;52.524;11.468;2022-10-31T14:08:40;21.20;78.00
32640;DHT22;19049;52.524;11.468;2022-10-31T14:11:09;21.10;78.50
32640;DHT22;19049;52.524;11.468;2022-10-31T14:13:45;20.90;78.80
32640;DHT22;19049;52.524;11.468;2022-10-31T14:16:18;20.80;79.20
32640;DHT22;19049;52.524;11.468;2022-10-31T14:18:56;20.70;79.30
32640;DHT22;19049;52.524;11.468;2022-10-31T14:23:49;20.40;79.90
32640;DHT22;19049;52.524;11.468;2022-10-31T14:28:45;20.10;80.40
32640;DHT22;19049;52.524;11.468;2022-10-31T14:31:31;20.00;80.70
32640;DHT22;19049;52.524;11.468;2022-10-31T14:34:25;19.90;81.10
32640;DHT22;19049;52.524;11.468;2022-10-31T14:50:47;19.00;82.70
32640;DHT22;19049;52.524;11.468;2022-10-31T14:53:35;19.00;83.00
32640;DHT22;19049;52.524;11.468;2022-10-31T14:56:02;18.80;83.60
32640;DHT22;19049;52.524;11.468;2022-10-31T14:58:40;18.70;83.60
32640;DHT22;19049;52.524;11.468;2022-10-31T15:01:21;18.60;84.10
32640;DHT22;19049;52.524;11.468;2022-10-31T15:03:47;18.50;84.20
32640;DHT22;19049;52.524;11.468;2022-10-31T15:06:18;18.40;84.30
32640;DHT22;19049;52.524;11.468;2022-10-31T15:08:53;18.20;84.60
32640;DHT22;19049;52.524;11.468;2022-10-31T15:11:22;18.20;84.80
32640;DHT22;19049;52.524;11.468;2022-10-31T15:13:58;18.10;84.90
32640;DHT22;19049;52.524;11.468;2022-10-31T15:16:32;17.90;85.30
32640;DHT22;19049;52.524;11.468;2022-10-31T15:19:04;17.80;85.50
32640;DHT22;19049;52.524;11.468;2022-10-31T15:21:30;17.80;85.80
32640;DHT22;19049;52.524;11.468;2022-10-31T15:23:58;17.60;86.00
32640;DHT22;19049;52.524;11.468;2022-10-31T15:26:33;17.50;86.10
32640;DHT22;19049;52.524;11.468;2022-10-31T15:29:02;17.40;86.50
32640;DHT22;19049;52.524;11.468;2022-10-31T15:31:28;17.30;86.70
32640;DHT22;19049;52.524;11.468;2022-10-31T15:33:55;17.20;86.50
32640;DHT22;19049;52.524;11.468;2022-10-31T15:36:24;17.10;87.00
32640;DHT22;19049;52.524;11.468;2022-10-31T15:38:51;17.00;87.30
32640;DHT22;19049;52.524;11.468;2022-10-31T15:44:33;16.80;88.10
32640;DHT22;19049;52.524;11.468;2022-10-31T15:47:03;16.80;88.50
32640;DHT22;19049;52.524;11.468;2022-10-31T15:51:54;16.60;88.40
32640;DHT22;19049;52.524;11.468;2022-10-31T15:54:21;16.60;89.20
32640;DHT22;19049;52.524;11.468;2022-10-31T15:56:47;16.60;89.00
32640;DHT22;19049;52.524;11.468;2022-10-31T15:59:20;16.50;89.30
32640;DHT22;19049;52.524;11.468;2022-10-31T16:02:01;16.50;89.70
32640;DHT22;19049;52.524;11.468;2022-10-31T16:04:28;16.50;90.00
32640;DHT22;19049;52.524;11.468;2022-10-31T16:07:15;16.40;90.00
32640;DHT22;19049;52.524;11.468;2022-10-31T16:09:57;16.40;90.30
32640;DHT22;19049;52.524;11.468;2022-10-31T16:12:24;16.40;90.50
32640;DHT22;19049;52.524;11.468;2022-10-31T16:14:52;16.40;90.40
32640;DHT22;19049;52.524;11.468;2022-10-31T16:17:21;16.40;90.60
32640;DHT22;19049;52.524;11.468;2022-10-31T16:22:30;16.30;90.70
32640;DHT22;19049;52.524;11.468;2022-10-31T16:25:14;16.30;90.90
32640;DHT22;19049;52.524;11.468;2022-10-31T16:27:48;16.30;90.90
32640;DHT22;19049;52.524;11.468;2022-10-31T16:30:40;16.30;90.80
32640;DHT22;19049;52.524;11.468;2022-10-31T16:33:28;16.30;91.00
32640;DHT22;19049;52.524;11.468;2022-10-31T16:35:58;16.30;91.20
32640;DHT22;19049;52.524;11.468;2022-10-31T16:38:24;16.20;91.00
32640;DHT22;19049;52.524;11.468;2022-10-31T16:40:50;16.20;91.00
32640;DHT22;19049;52.524;11.468;2022-10-31T16:43:18;16.20;91.00
32640;DHT22;19049;52.524;11.468;2022-10-31T16:45:46;16.20;91.10
32640;DHT22;19049;52.524;11.468;2022-10-31T16:48:18;16.20;91.20
32640;DHT22;19049;52.524;11.468;2022-10-31T16:50:44;16.20;91.30
32640;DHT22;19049;52.524;11.468;2022-10-31T16:53:14;16.20;91.20
32640;DHT22;19049;52.524;11.468;2022-10-31T16:55:54;16.10;91.30
32640;DHT22;19049;52.524;11.468;2022-10-31T16:58:26;16.10;91.60
32640;DHT22;19049;52.524;11.468;2022-10-31T17:00:53;16.10;91.60
32640;DHT22;19049;52.524;11.468;2022-10-31T17:03:19;16.10;91.60
32640;DHT22;19049;52.524;11.468;2022-10-31T17:05:45;16.10;91.50
32640;DHT22;19049;52.524;11.468;2022-10-31T17:08:11;16.10;91.50
32640;DHT22;19049;52.524;11.468;2022-10-31T17:10:38;16.10;91.70
32640;DHT22;19049;52.524;11.468;2022-10-31T17:13:07;16.10;91.70
32640;DHT22;19049;52.524;11.468;2022-10-31T17:15:42;16.10;91.80
32640;DHT22;19049;52.524;11.468;2022-10-31T17:18:13;16.10;91.80
32640;DHT22;19049;52.524;11.468;2022-10-31T17:20:39;16.10;92.20
32640;DHT22;19049;52.524;11.468;2022-10-31T17:23:05;16.10;91.90